Terminal Aerodrome Forecast
Issued by NWS Paducah, KY

Home | Current Version | Previous Version | Text Only | Print | Product List | Glossary On
Versions: 1 2 3 4 5 6 7 8 9 10 11 12 13 14 15 16 17 18 19
000
FTUS43 KPAH 201132
TAFPAH
TAF
KPAH 201132Z 2012/2112 06006KT P6SM SCT060 BKN130
      TEMPO 2014/2016 -SHRA BKN060
     FM201700 04007KT 5SM -SHRA BR SCT025 OVC050
     FM202100 01008KT 5SM BR BKN014 OVC045
     FM210000 36006KT 4SM BR OVC009=

USA.gov is the U.S. government's official web portal to all federal, state and local government web resources and services.